createdAt,value
2023-01-13T00:00:09.362Z,99.99
2023-01-13T00:01:09.267Z,99.74
2023-01-13T00:02:09.238Z,99.99
2023-01-13T00:03:09.207Z,99.99
2023-01-13T00:04:09.203Z,99.84
2023-01-13T00:05:09.213Z,99.99
2023-01-13T00:06:09.177Z,99.54
2023-01-13T00:07:09.191Z,99.84
2023-01-13T00:08:09.148Z,99.95
2023-01-13T00:09:09.160Z,99.99
2023-01-13T00:10:09.129Z,99.43
2023-01-13T00:11:09.122Z,99.99
2023-01-13T00:12:09.117Z,99.84
2023-01-13T00:13:09.121Z,99.49
2023-01-13T00:14:09.100Z,99.54
2023-01-13T00:15:09.076Z,99.74
2023-01-13T00:16:09.122Z,99.99
2023-01-13T00:17:09.088Z,99.99
2023-01-13T00:18:09.048Z,99.99
2023-01-13T00:19:09.057Z,99.99
2023-01-13T00:20:09.027Z,99.99
2023-01-13T00:21:09.031Z,99.99
2023-01-13T00:22:09.010Z,99.95
2023-01-13T00:23:08.990Z,99.99
2023-01-13T00:24:08.990Z,99.99
2023-01-13T00:25:09.004Z,99.95
2023-01-13T00:26:08.963Z,99.99
2023-01-13T00:27:08.943Z,99.99
2023-01-13T00:28:08.933Z,99.99
2023-01-13T00:29:08.943Z,99.99
2023-01-13T00:30:08.921Z,99.74
2023-01-13T00:31:08.969Z,99.99
2023-01-13T00:32:08.896Z,99.99
2023-01-13T00:33:08.904Z,99.99
2023-01-13T00:34:08.872Z,99.99
2023-01-13T00:35:08.897Z,99.99
2023-01-13T00:36:08.863Z,99.54
2023-01-13T00:37:08.852Z,99.99
2023-01-13T00:38:08.828Z,99.43
2023-01-13T00:39:08.829Z,99.99
2023-01-13T00:40:08.832Z,99.90
2023-01-13T00:41:08.798Z,99.99
2023-01-13T00:42:08.804Z,99.99
2023-01-13T00:43:08.776Z,99.99
2023-01-13T00:44:08.767Z,99.99
2023-01-13T00:45:08.766Z,99.99
2023-01-13T00:46:08.830Z,99.99
2023-01-13T00:47:08.741Z,99.99
2023-01-13T00:48:08.734Z,99.99
2023-01-13T00:49:08.708Z,99.99
2023-01-13T00:50:08.704Z,99.99
2023-01-13T00:51:08.693Z,99.79
2023-01-13T00:52:08.692Z,99.59
2023-01-13T00:53:08.673Z,99.99
2023-01-13T00:54:08.669Z,99.99
2023-01-13T00:55:08.656Z,99.99
2023-01-13T00:56:08.639Z,99.99
2023-01-13T00:57:08.635Z,99.99
2023-01-13T00:58:08.641Z,99.99
2023-01-13T00:59:08.605Z,99.99
2023-01-13T01:00:08.588Z,99.99
2023-01-13T01:01:08.703Z,99.59
2023-01-13T01:02:08.654Z,99.49
2023-01-13T01:03:08.589Z,99.49
2023-01-13T01:04:08.578Z,99.59
2023-01-13T01:05:08.555Z,99.49
2023-01-13T01:06:08.535Z,99.08
2023-01-13T01:07:08.513Z,99.28
2023-01-13T01:08:08.512Z,99.90
2023-01-13T01:09:08.538Z,98.87
2023-01-13T01:10:08.498Z,98.77
2023-01-13T01:11:08.488Z,99.18
2023-01-13T01:12:08.460Z,98.77
2023-01-13T01:13:08.450Z,98.36
2023-01-13T01:14:08.450Z,98.87
2023-01-13T01:15:08.462Z,99.28
2023-01-13T01:16:08.563Z,98.87
2023-01-13T01:17:08.427Z,99.18
2023-01-13T01:18:08.406Z,99.18
2023-01-13T01:19:08.393Z,99.90
2023-01-13T01:20:08.402Z,99.28
2023-01-13T01:21:08.368Z,99.49
2023-01-13T01:22:08.355Z,98.87
2023-01-13T01:23:08.356Z,99.08
2023-01-13T01:24:08.333Z,99.59
2023-01-13T01:25:08.326Z,99.18
2023-01-13T01:26:08.354Z,98.97
2023-01-13T01:27:08.314Z,99.18
2023-01-13T01:28:08.287Z,99.59
2023-01-13T01:29:08.294Z,99.90
2023-01-13T01:30:08.274Z,99.69
2023-01-13T01:31:08.447Z,99.49
2023-01-13T01:32:08.271Z,99.79
2023-01-13T01:33:08.255Z,99.79
2023-01-13T01:34:08.239Z,99.69
2023-01-13T01:35:08.236Z,99.99
2023-01-13T01:36:08.210Z,99.99
2023-01-13T01:37:08.198Z,99.69
2023-01-13T01:38:08.224Z,99.59
2023-01-13T01:39:08.203Z,99.38
2023-01-13T01:40:08.209Z,99.90
2023-01-13T01:41:08.187Z,99.99
2023-01-13T01:42:08.145Z,99.69
2023-01-13T01:43:08.131Z,99.69
2023-01-13T01:44:08.151Z,99.99
2023-01-13T01:45:08.111Z,99.28
2023-01-13T01:46:08.102Z,99.59
2023-01-13T01:47:08.094Z,99.79
2023-01-13T01:48:08.088Z,99.69
2023-01-13T01:49:08.064Z,99.38
2023-01-13T01:50:08.084Z,99.59
2023-01-13T01:51:08.058Z,99.38
2023-01-13T01:52:08.059Z,99.59
2023-01-13T01:53:08.025Z,98.77
2023-01-13T01:54:08.014Z,99.59
2023-01-13T01:55:08.290Z,99.18
2023-01-13T01:56:08.027Z,99.38
2023-01-13T01:57:07.994Z,99.49
2023-01-13T01:58:07.976Z,99.59
2023-01-13T01:59:07.965Z,99.90
2023-01-13T02:00:07.980Z,99.99
2023-01-13T02:01:08.063Z,99.90
2023-01-13T02:02:08.128Z,99.79
2023-01-13T02:03:07.932Z,99.38
2023-01-13T02:04:07.900Z,99.18
2023-01-13T02:05:07.920Z,99.49
2023-01-13T02:06:07.898Z,99.90
2023-01-13T02:07:07.878Z,99.38
2023-01-13T02:08:07.869Z,99.59
2023-01-13T02:09:07.855Z,99.38
2023-01-13T02:10:07.848Z,99.18
2023-01-13T02:11:07.834Z,99.08
2023-01-13T02:12:07.838Z,99.08
2023-01-13T02:13:07.802Z,99.18
2023-01-13T02:14:07.801Z,99.08
2023-01-13T02:15:07.801Z,99.38
2023-01-13T02:16:07.815Z,99.59
2023-01-13T02:18:00.701Z,98.46
2023-01-13T02:19:07.696Z,98.87
2023-01-13T02:20:01.688Z,98.57
2023-01-13T02:21:07.795Z,98.97
2023-01-13T02:22:01.661Z,99.08
2023-01-13T02:25:28.313Z,98.77
2023-01-13T02:26:29.305Z,98.25
2023-01-13T02:27:29.280Z,98.67
2023-01-13T02:28:29.266Z,98.05
2023-01-13T02:29:29.305Z,97.95
2023-01-13T07:01:00.656Z,99.99
2023-01-13T07:02:01.546Z,99.99
2023-01-13T07:03:01.397Z,99.99
2023-01-13T07:04:01.400Z,99.99
2023-01-13T07:05:01.369Z,99.99
2023-01-13T07:06:01.415Z,99.99
2023-01-13T07:07:01.349Z,99.99
2023-01-13T07:08:01.363Z,99.99
2023-01-13T07:09:01.346Z,99.99
2023-01-13T07:10:01.339Z,99.99
2023-01-13T07:11:01.304Z,99.99
2023-01-13T07:12:01.331Z,99.99
2023-01-13T07:13:01.289Z,99.99
2023-01-13T07:14:01.307Z,99.99
2023-01-13T07:15:01.286Z,99.99
2023-01-13T07:16:01.349Z,99.99
2023-01-13T07:17:01.256Z,99.99
2023-01-13T07:18:01.266Z,99.99
2023-01-13T07:19:01.236Z,99.99
2023-01-13T07:20:01.215Z,99.99
2023-01-13T07:21:01.219Z,99.99
2023-01-13T07:22:01.190Z,99.99
2023-01-13T07:23:01.197Z,99.99
2023-01-13T07:24:01.183Z,99.99
2023-01-13T07:25:01.181Z,99.99
2023-01-13T07:26:01.185Z,99.99
2023-01-13T07:27:01.158Z,99.99
2023-01-13T07:28:01.121Z,99.99
2023-01-13T07:29:01.158Z,99.99
2023-01-13T07:30:01.183Z,99.99
2023-01-13T07:31:01.108Z,99.99
2023-01-13T07:32:01.148Z,99.99
2023-01-13T07:33:01.105Z,99.99
2023-01-13T07:34:01.059Z,99.99
2023-01-13T07:35:01.089Z,99.99
2023-01-13T07:36:01.076Z,99.99
2023-01-13T07:37:01.036Z,99.99
2023-01-13T07:38:01.020Z,99.99
2023-01-13T07:39:01.020Z,99.99
2023-01-13T07:40:01.026Z,99.99
2023-01-13T07:41:01.008Z,99.99
2023-01-13T07:42:00.982Z,99.99
2023-01-13T07:43:00.978Z,99.99
2023-01-13T07:44:00.961Z,99.99
2023-01-13T07:45:00.985Z,99.99
2023-01-13T07:46:01.020Z,99.99
2023-01-13T07:47:00.987Z,99.99
2023-01-13T07:48:00.944Z,99.99
2023-01-13T07:49:00.908Z,99.99
2023-01-13T07:50:00.902Z,99.99
2023-01-13T07:51:00.896Z,99.99
2023-01-13T07:52:00.885Z,99.99
2023-01-13T07:53:00.877Z,99.99
2023-01-13T07:54:00.840Z,99.99
2023-01-13T07:55:00.846Z,99.99
2023-01-13T07:56:00.836Z,99.99
2023-01-13T07:57:00.817Z,99.99
2023-01-13T07:58:00.816Z,99.99
2023-01-13T07:59:00.815Z,99.99
2023-01-13T08:00:00.790Z,99.99
2023-01-13T08:01:00.918Z,99.99
2023-01-13T08:02:01.089Z,99.99
2023-01-13T08:03:00.941Z,99.99
2023-01-13T08:04:00.763Z,99.99
2023-01-13T08:05:00.750Z,99.99
2023-01-13T08:06:00.722Z,99.99
2023-01-13T08:07:00.715Z,99.99
2023-01-13T08:08:00.721Z,99.99
2023-01-13T08:09:00.742Z,99.99
2023-01-13T08:10:00.674Z,99.99
2023-01-13T08:11:00.687Z,99.99
2023-01-13T08:12:00.649Z,99.99
2023-01-13T08:13:00.653Z,99.99
2023-01-13T08:14:00.635Z,99.99
2023-01-13T08:15:00.652Z,99.99
2023-01-13T08:16:00.650Z,99.99
2023-01-13T08:17:00.626Z,99.99
2023-01-13T08:18:00.594Z,99.99
2023-01-13T08:19:00.602Z,99.99
2023-01-13T08:20:00.610Z,99.99
2023-01-13T08:21:00.577Z,99.99
2023-01-13T08:22:00.568Z,99.99
2023-01-13T08:23:00.552Z,99.99
2023-01-13T08:24:00.535Z,99.99
2023-01-13T08:25:00.543Z,99.99
2023-01-13T08:26:00.515Z,99.99
2023-01-13T08:27:00.504Z,99.99
2023-01-13T08:28:00.497Z,99.99
2023-01-13T08:29:00.486Z,99.99
2023-01-13T08:30:00.478Z,99.99
2023-01-13T08:31:00.548Z,99.99
2023-01-13T08:32:00.455Z,99.99
2023-01-13T08:33:00.467Z,99.99
2023-01-13T08:34:00.423Z,99.99
2023-01-13T08:35:00.417Z,99.99
2023-01-13T08:36:00.394Z,99.99
2023-01-13T08:37:00.402Z,99.99
2023-01-13T08:38:00.406Z,99.99
2023-01-13T08:39:00.402Z,99.99
2023-01-13T08:40:00.341Z,99.99
2023-01-13T08:41:00.349Z,99.99
2023-01-13T08:42:00.342Z,99.99
2023-01-13T08:43:00.367Z,99.99
2023-01-13T08:44:00.304Z,99.99
2023-01-13T08:45:00.323Z,99.99
2023-01-13T08:46:00.438Z,99.99
2023-01-13T08:47:00.295Z,99.99
2023-01-13T08:48:00.280Z,99.99
2023-01-13T08:49:00.267Z,99.99
2023-01-13T08:50:00.295Z,99.99
2023-01-13T08:51:00.251Z,99.99
2023-01-13T08:52:00.256Z,99.99
2023-01-13T08:53:00.243Z,99.99
2023-01-13T08:54:00.214Z,99.99
2023-01-13T08:55:00.206Z,99.99
2023-01-13T08:56:00.198Z,99.99
2023-01-13T08:57:00.290Z,99.99
2023-01-13T08:58:14.446Z,99.99
2023-01-13T08:59:00.174Z,99.99
2023-01-13T09:00:00.136Z,99.99
2023-01-13T09:01:00.259Z,99.99
2023-01-13T09:02:00.246Z,99.99
2023-01-13T09:03:00.164Z,99.99
2023-01-13T09:04:00.239Z,99.99
2023-01-13T09:05:00.124Z,99.99
2023-01-13T09:06:00.071Z,99.99
2023-01-13T09:07:00.072Z,99.99
2023-01-13T09:08:00.045Z,99.99
2023-01-13T09:09:00.081Z,99.99
2023-01-13T09:10:00.028Z,99.99
2023-01-13T09:11:00.039Z,99.99
2023-01-13T09:12:00.033Z,99.99
2023-01-13T09:13:00.024Z,99.99
2023-01-13T09:14:02.418Z,99.99
2023-01-13T09:14:59.991Z,99.99
2023-01-13T09:16:00.001Z,99.99
2023-01-13T09:17:00.035Z,99.99
2023-01-13T09:18:00.155Z,99.99
2023-01-13T09:18:59.946Z,99.99
2023-01-13T09:19:59.941Z,99.99
2023-01-13T09:20:59.927Z,99.99
2023-01-13T09:21:59.921Z,99.99
2023-01-13T09:22:59.919Z,99.99
2023-01-13T09:23:59.891Z,99.99
2023-01-13T09:24:59.888Z,99.99
2023-01-13T09:25:59.869Z,99.77
2023-01-13T09:26:59.867Z,99.99
2023-01-13T09:27:59.855Z,99.99
2023-01-13T09:28:59.852Z,99.99
2023-01-13T09:29:59.806Z,99.99
2023-01-13T09:30:59.864Z,99.97
2023-01-13T09:31:59.801Z,99.99
2023-01-13T09:32:59.812Z,99.99
2023-01-13T09:33:59.787Z,99.97
2023-01-13T09:34:59.767Z,99.77
2023-01-13T09:35:59.745Z,99.99
2023-01-13T09:36:59.766Z,99.99
2023-01-13T09:37:59.723Z,99.99
2023-01-13T09:38:59.736Z,99.99
2023-01-13T09:39:59.730Z,99.99
2023-01-13T09:40:59.721Z,99.99
2023-01-13T09:41:59.731Z,99.99
2023-01-13T09:42:59.718Z,99.99
2023-01-13T09:43:59.681Z,99.77
2023-01-13T09:44:59.668Z,99.05
2023-01-13T09:45:59.726Z,99.05
2023-01-13T09:46:59.648Z,99.15
2023-01-13T09:47:59.622Z,98.74
2023-01-13T09:48:59.648Z,99.99
2023-01-13T09:49:59.599Z,98.90
2023-01-13T09:50:59.643Z,98.38
2023-01-13T09:51:59.568Z,98.59
2023-01-13T09:52:59.584Z,99.31
2023-01-13T09:53:59.558Z,99.10
2023-01-13T09:54:59.571Z,98.49
2023-01-13T09:55:59.579Z,98.79
2023-01-13T09:56:59.541Z,98.79
2023-01-13T09:57:59.527Z,98.59
2023-01-13T09:58:59.512Z,97.56
2023-01-13T09:59:59.500Z,97.56
2023-01-13T10:00:59.573Z,98.07
2023-01-13T10:01:59.547Z,98.18
2023-01-13T10:02:59.484Z,98.18
2023-01-13T10:03:59.480Z,97.25
2023-01-13T10:04:59.512Z,98.07
2023-01-13T10:05:59.436Z,97.56
2023-01-13T10:06:59.454Z,98.13
2023-01-13T10:07:59.508Z,97.72
2023-01-13T10:08:59.426Z,97.62
2023-01-13T10:09:59.384Z,95.97
2023-01-13T10:10:59.418Z,98.03
2023-01-13T10:11:59.383Z,97.72
2023-01-13T10:12:59.377Z,96.69
2023-01-13T10:13:59.377Z,97.20
2023-01-13T10:14:59.381Z,96.69
2023-01-13T10:16:02.017Z,95.77
2023-01-13T10:16:59.344Z,96.48
2023-01-13T10:17:59.370Z,97.10
2023-01-13T10:18:59.319Z,96.39
2023-01-13T10:19:59.304Z,95.25
2023-01-13T10:20:59.284Z,95.81
2023-01-13T10:21:59.266Z,93.55
2023-01-13T10:22:59.261Z,92.01
2023-01-13T10:23:59.240Z,93.76
2023-01-13T10:24:59.279Z,91.29
2023-01-13T10:25:59.257Z,93.35
2023-01-13T10:26:59.213Z,92.73
2023-01-13T10:27:59.188Z,93.65
2023-01-13T10:28:59.195Z,92.83
2023-01-13T10:29:59.204Z,91.60
2023-01-13T10:30:59.227Z,92.42
2023-01-13T10:31:59.170Z,90.36
2023-01-13T10:32:59.145Z,90.98
2023-01-13T10:33:59.156Z,90.98
2023-01-13T10:34:59.129Z,91.60
2023-01-13T10:35:59.173Z,92.93
2023-01-13T10:36:59.133Z,91.29
2023-01-13T10:37:59.084Z,92.52
2023-01-13T10:38:59.077Z,90.67
2023-01-13T10:39:59.067Z,91.60
2023-01-13T10:40:59.104Z,90.06
2023-01-13T10:41:59.048Z,91.08
2023-01-13T10:42:59.069Z,92.07
2023-01-13T10:43:59.037Z,89.09
2023-01-13T10:44:59.021Z,90.63
2023-01-13T10:45:59.005Z,89.09
2023-01-13T10:46:59.007Z,90.01
2023-01-13T10:47:58.996Z,90.22
2023-01-13T10:48:59.037Z,90.22
2023-01-13T10:49:58.958Z,90.59
2023-01-13T10:50:58.957Z,91.10
2023-01-13T10:51:59.001Z,89.56
2023-01-13T10:52:58.931Z,91.72
2023-01-13T10:53:58.963Z,90.48
2023-01-13T10:54:58.961Z,90.59
2023-01-13T10:55:58.903Z,89.62
2023-01-13T10:56:58.889Z,90.14
2023-01-13T10:57:58.881Z,88.39
2023-01-13T10:58:58.874Z,89.93
2023-01-13T10:59:58.884Z,91.47
2023-01-13T11:00:58.897Z,90.14
2023-01-13T11:01:58.866Z,88.70
2023-01-13T11:02:58.828Z,90.03
2023-01-13T11:03:58.818Z,90.24
2023-01-13T11:04:59.009Z,89.93
2023-01-13T11:05:58.815Z,90.50
2023-01-13T11:06:58.812Z,89.17
2023-01-13T11:07:58.827Z,89.99
2023-01-13T11:08:58.780Z,89.78
2023-01-13T11:09:58.783Z,89.07
2023-01-13T11:10:58.741Z,89.89
2023-01-13T11:11:58.761Z,88.90
2023-01-13T11:12:58.744Z,87.57
2023-01-13T11:13:58.745Z,89.21
2023-01-13T11:14:58.710Z,87.98
2023-01-13T11:15:58.713Z,88.70
2023-01-13T11:16:58.699Z,86.65
2023-01-13T11:17:58.655Z,87.26
2023-01-13T11:18:58.727Z,88.18
2023-01-13T11:19:58.675Z,89.21
2023-01-13T11:20:58.685Z,89.52
2023-01-13T11:21:58.620Z,87.57
2023-01-13T11:22:58.647Z,87.05
2023-01-13T11:23:58.613Z,88.08
2023-01-13T11:24:58.686Z,86.95
2023-01-13T11:25:58.588Z,84.80
2023-01-13T11:26:58.632Z,86.65
2023-01-13T11:27:58.548Z,87.67
2023-01-13T11:28:58.550Z,85.93
2023-01-13T11:29:58.519Z,85.93
2023-01-13T11:30:58.609Z,85.99
2023-01-13T11:31:58.507Z,85.68
2023-01-13T11:32:58.511Z,86.30
2023-01-13T11:33:58.495Z,85.06
2023-01-13T11:34:58.458Z,84.76
2023-01-13T11:35:58.461Z,85.99
2023-01-13T11:36:58.502Z,86.60
2023-01-13T11:37:58.455Z,85.89
2023-01-13T11:38:58.429Z,85.58
2023-01-13T11:39:58.441Z,86.91
2023-01-13T11:40:58.403Z,84.86
2023-01-13T11:41:58.429Z,83.63
2023-01-13T11:42:58.395Z,85.89
2023-01-13T11:43:58.389Z,85.58
2023-01-13T11:44:58.360Z,83.22
2023-01-13T11:45:58.391Z,85.47
2023-01-13T11:46:58.416Z,86.81
2023-01-13T11:47:58.358Z,86.05
2023-01-13T11:48:58.330Z,84.82
2023-01-13T11:49:58.353Z,84.61
2023-01-13T11:50:58.305Z,86.57
2023-01-13T11:51:58.303Z,85.33
2023-01-13T11:52:58.323Z,84.31
2023-01-13T11:53:58.287Z,84.31
2023-01-13T11:54:58.265Z,84.52
2023-01-13T11:55:58.261Z,84.52
2023-01-13T11:56:58.235Z,82.56
2023-01-13T11:57:58.290Z,84.10
2023-01-13T11:58:58.225Z,84.10
2023-01-13T11:59:58.219Z,84.31
2023-01-13T12:00:58.220Z,83.59
2023-01-13T12:01:58.278Z,84.10
2023-01-13T12:02:58.253Z,82.77
2023-01-13T12:03:58.167Z,82.56
2023-01-13T12:04:58.160Z,86.05
2023-01-13T12:05:58.157Z,82.26
2023-01-13T12:06:58.120Z,82.67
2023-01-13T12:07:58.120Z,80.82
2023-01-13T12:08:58.110Z,80.92
2023-01-13T12:09:58.145Z,82.05
2023-01-13T12:10:58.095Z,83.49
2023-01-13T12:11:58.112Z,81.85
2023-01-13T12:13:00.156Z,84.17
2023-01-13T12:13:58.061Z,82.01
2023-01-13T12:14:58.060Z,83.14
2023-01-13T12:15:58.042Z,82.67
2023-01-13T12:17:00.342Z,80.99
2023-01-13T12:17:58.043Z,81.64
2023-01-13T12:18:57.991Z,81.29
2023-01-13T12:19:58.057Z,82.46
2023-01-13T12:20:57.991Z,79.49
2023-01-13T12:21:58.013Z,79.59
2023-01-13T12:22:57.965Z,81.74
2023-01-13T12:23:57.973Z,82.15
2023-01-13T12:24:57.946Z,82.87
2023-01-13T12:25:57.953Z,83.18
2023-01-13T12:26:57.898Z,82.77
2023-01-13T12:27:57.930Z,84.61
2023-01-13T12:28:57.983Z,86.25
2023-01-13T12:29:57.919Z,84.41
2023-01-13T12:30:57.869Z,82.81
2023-01-13T12:31:57.951Z,84.25
2023-01-13T12:32:57.833Z,85.58
2023-01-13T12:33:57.864Z,86.09
2023-01-13T12:34:57.818Z,84.34
2023-01-13T12:35:58.346Z,85.89
2023-01-13T12:36:57.824Z,82.29
2023-01-13T12:37:57.795Z,83.83
2023-01-13T12:38:57.783Z,84.76
2023-01-13T12:39:57.828Z,83.42
2023-01-13T12:40:57.753Z,85.47
2023-01-13T12:41:57.757Z,84.52
2023-01-13T12:42:57.728Z,83.90
2023-01-13T12:43:57.740Z,87.38
2023-01-13T12:44:57.723Z,86.98
2023-01-13T12:45:57.751Z,84.88
2023-01-13T12:46:57.681Z,84.37
2023-01-13T12:47:57.695Z,82.42
2023-01-13T12:48:57.676Z,86.01
2023-01-13T12:49:57.682Z,82.08
2023-01-13T12:50:57.664Z,82.59
2023-01-13T12:51:57.695Z,82.90
2023-01-13T12:52:57.626Z,79.00
2023-01-13T12:53:57.651Z,83.92
2023-01-13T12:54:57.600Z,79.58
2023-01-13T12:55:57.605Z,81.43
2023-01-13T12:56:57.612Z,79.58
2023-01-13T12:57:57.592Z,79.07
2023-01-13T12:58:57.553Z,80.30
2023-01-13T12:59:57.563Z,80.09
2023-01-13T13:00:57.710Z,80.30
2023-01-13T13:01:57.800Z,78.86
2023-01-13T13:02:57.568Z,80.71
2023-01-13T13:03:57.533Z,79.38
2023-01-13T13:04:57.499Z,76.72
2023-01-13T13:05:57.503Z,78.83
2023-01-13T13:06:57.474Z,78.63
2023-01-13T13:07:57.471Z,80.26
2023-01-13T13:08:57.489Z,78.31
2023-01-13T13:09:57.472Z,78.93
2023-01-13T13:10:57.425Z,79.85
2023-01-13T13:11:57.431Z,77.60
2023-01-13T13:12:57.400Z,78.52
2023-01-13T13:13:57.434Z,76.78
2023-01-13T13:14:57.481Z,78.31
2023-01-13T13:15:57.391Z,76.98
2023-01-13T13:16:57.398Z,77.09
2023-01-13T13:17:57.369Z,78.52
2023-01-13T13:18:57.345Z,81.38
2023-01-13T13:19:57.342Z,80.30
2023-01-13T13:20:57.349Z,79.58
2023-01-13T13:21:57.336Z,80.40
2023-01-13T13:22:57.298Z,80.40
2023-01-13T13:23:57.324Z,78.05
2023-01-13T13:24:57.283Z,80.95
2023-01-13T13:25:57.292Z,80.85
2023-01-13T13:26:57.285Z,83.00
2023-01-13T13:27:57.284Z,82.59
2023-01-13T13:28:57.245Z,79.04
2023-01-13T13:29:57.257Z,82.63
2023-01-13T13:30:57.236Z,81.40
2023-01-13T13:31:57.242Z,84.06
2023-01-13T13:32:57.214Z,83.55
2023-01-13T13:33:57.190Z,85.71
2023-01-13T13:34:57.190Z,86.05
2023-01-13T13:35:57.189Z,88.41
2023-01-13T13:36:57.167Z,88.24
2023-01-13T13:37:57.179Z,89.99
2023-01-13T13:38:57.153Z,91.42
2023-01-13T13:39:57.139Z,90.75
2023-01-13T13:40:57.131Z,93.21
2023-01-13T13:41:57.124Z,92.13
2023-01-13T13:42:57.092Z,92.48
2023-01-13T13:43:57.118Z,93.04
2023-01-13T13:44:57.090Z,94.68
2023-01-13T13:45:57.107Z,95.81
2023-01-13T13:46:57.058Z,95.24
2023-01-13T13:47:57.116Z,95.86
2023-01-13T13:48:57.023Z,96.58
2023-01-13T13:49:57.074Z,96.52
2023-01-13T13:50:57.057Z,96.42
2023-01-13T13:51:57.045Z,97.86
2023-01-13T13:52:56.992Z,98.27
2023-01-13T13:53:56.975Z,98.88
2023-01-13T13:54:56.949Z,98.16
2023-01-13T13:55:56.960Z,98.68
2023-01-13T13:56:56.957Z,99.40
2023-01-13T13:57:56.948Z,99.71
2023-01-13T13:58:56.913Z,99.71
2023-01-13T13:59:56.958Z,99.91
2023-01-13T14:00:57.006Z,99.09
2023-01-13T14:01:57.104Z,98.79
2023-01-13T14:02:56.890Z,98.88
2023-01-13T14:03:56.876Z,99.40
2023-01-13T14:04:56.854Z,99.91
2023-01-13T14:05:56.871Z,99.91
2023-01-13T14:06:56.849Z,99.81
2023-01-13T14:08:03.829Z,99.81
2023-01-13T14:08:56.766Z,99.99
2023-01-13T14:09:56.775Z,99.99
2023-01-13T14:10:56.755Z,99.99
2023-01-13T14:11:56.756Z,99.99
2023-01-13T14:12:56.727Z,99.99
2023-01-13T14:13:56.739Z,99.91
2023-01-13T14:14:56.750Z,99.99
2023-01-13T14:15:56.734Z,99.91
2023-01-13T14:16:56.669Z,99.71
2023-01-13T14:17:56.694Z,99.91
2023-01-13T14:18:56.686Z,99.81
2023-01-13T14:19:56.675Z,99.40
2023-01-13T14:20:56.642Z,98.79
2023-01-13T14:21:56.686Z,99.19
2023-01-13T14:22:56.611Z,99.30
2023-01-13T14:23:56.607Z,99.71
2023-01-13T14:24:56.610Z,99.71
2023-01-13T14:25:56.582Z,99.60
2023-01-13T14:26:56.552Z,99.99
2023-01-13T14:27:56.556Z,98.88
2023-01-13T14:28:56.539Z,98.68
2023-01-13T14:29:56.564Z,98.53
2023-01-13T14:30:56.555Z,98.53
2023-01-13T14:31:56.531Z,99.25
2023-01-13T14:32:56.494Z,98.94
2023-01-13T14:33:56.505Z,98.74
2023-01-13T14:34:56.481Z,97.61
2023-01-13T14:35:56.464Z,96.27
2023-01-13T14:36:56.522Z,96.00
2023-01-13T14:37:56.438Z,97.44
2023-01-13T14:38:56.411Z,97.03
2023-01-13T14:39:56.439Z,96.93
2023-01-13T14:40:56.395Z,97.24
2023-01-13T14:41:56.391Z,97.24
2023-01-13T14:42:56.398Z,97.03
2023-01-13T14:43:56.388Z,97.65
2023-01-13T14:44:56.521Z,97.86
2023-01-13T14:45:56.456Z,97.14
2023-01-13T14:46:56.327Z,96.11
2023-01-13T14:47:56.350Z,97.24
2023-01-13T14:48:56.302Z,96.62
2023-01-13T14:49:56.317Z,97.34
2023-01-13T14:50:56.274Z,97.24
2023-01-13T14:51:56.313Z,96.83
2023-01-13T14:52:56.257Z,95.80
2023-01-13T14:53:56.298Z,96.42
2023-01-13T14:54:56.241Z,95.49
2023-01-13T14:55:56.267Z,94.15
2023-01-13T14:56:56.230Z,94.98
2023-01-13T14:57:56.220Z,95.08
2023-01-13T14:58:56.225Z,95.28
2023-01-13T14:59:56.200Z,95.18
2023-01-13T15:00:56.193Z,94.56
2023-01-13T15:01:56.305Z,94.98
2023-01-13T15:02:56.240Z,93.54
2023-01-13T15:03:56.178Z,94.67
2023-01-13T15:04:56.123Z,93.64
2023-01-13T15:05:56.148Z,94.67
2023-01-13T15:06:56.133Z,94.77
2023-01-13T15:07:56.127Z,95.49
2023-01-13T15:08:56.088Z,94.15
2023-01-13T15:09:56.129Z,93.84
2023-01-13T15:10:56.093Z,94.05
2023-01-13T15:11:56.058Z,92.50
2023-01-13T15:12:56.052Z,93.33
2023-01-13T15:13:56.041Z,94.77
2023-01-13T15:14:56.026Z,93.74
2023-01-13T15:15:56.112Z,93.33
2023-01-13T15:16:56.001Z,92.30
2023-01-13T15:17:56.032Z,93.64
2023-01-13T15:18:55.988Z,92.46
2023-01-13T15:19:55.977Z,92.77
2023-01-13T15:20:55.998Z,94.31
2023-01-13T15:21:55.960Z,93.29
2023-01-13T15:22:55.924Z,91.53
2023-01-13T15:23:55.934Z,92.46
2023-01-13T15:24:55.925Z,93.80
2023-01-13T15:25:55.913Z,93.23
2023-01-13T15:26:55.903Z,91.68
2023-01-13T15:27:55.907Z,92.46
2023-01-13T15:28:55.869Z,92.40
2023-01-13T15:29:55.874Z,92.71
2023-01-13T15:30:55.915Z,93.95
2023-01-13T15:31:55.868Z,92.10
2023-01-13T15:32:55.825Z,92.71
2023-01-13T15:33:55.844Z,92.71
2023-01-13T15:34:55.813Z,92.92
2023-01-13T15:35:55.802Z,93.12
2023-01-13T15:36:55.777Z,91.68
2023-01-13T15:37:55.783Z,93.64
2023-01-13T15:38:55.804Z,92.92
2023-01-13T15:39:55.772Z,91.89
2023-01-13T15:40:55.743Z,93.64
2023-01-13T15:41:55.753Z,93.33
2023-01-13T15:42:55.722Z,93.18
2023-01-13T15:43:55.743Z,93.08
2023-01-13T15:44:55.694Z,94.26
2023-01-13T15:45:55.819Z,93.43
2023-01-13T15:46:55.674Z,94.15
2023-01-13T15:47:55.703Z,94.36
2023-01-13T15:48:55.663Z,93.43
2023-01-13T15:49:55.639Z,94.87
2023-01-13T15:50:55.664Z,93.54
2023-01-13T15:51:55.632Z,92.92
2023-01-13T15:52:55.636Z,93.84
2023-01-13T15:53:55.606Z,95.24
2023-01-13T15:54:55.593Z,94.62
2023-01-13T15:55:55.575Z,93.33
2023-01-13T15:56:55.592Z,94.56
2023-01-13T15:57:55.548Z,94.46
2023-01-13T15:58:55.590Z,94.62
2023-01-13T15:59:55.544Z,93.95
2023-01-13T16:00:55.746Z,93.80
2023-01-13T16:01:55.525Z,93.80
2023-01-13T16:02:55.594Z,94.05
2023-01-13T16:03:56.636Z,93.59
2023-01-13T16:04:55.498Z,94.21
2023-01-13T16:05:55.471Z,93.70
2023-01-13T16:06:55.489Z,94.05
2023-01-13T16:07:55.460Z,91.99
2023-01-13T16:08:55.463Z,93.02
2023-01-13T16:09:55.444Z,92.50
2023-01-13T16:10:55.445Z,93.64
2023-01-13T16:11:55.414Z,94.46
2023-01-13T16:12:55.416Z,93.43
2023-01-13T16:13:55.397Z,93.64
2023-01-13T16:14:55.432Z,92.61
2023-01-13T16:15:56.785Z,93.23
2023-01-13T16:16:55.383Z,91.78
2023-01-13T16:17:55.425Z,93.12
2023-01-13T16:18:55.437Z,91.68
2023-01-13T16:19:55.387Z,91.99
2023-01-13T16:20:55.408Z,93.84
2023-01-13T16:21:55.374Z,93.33
2023-01-13T16:22:55.367Z,91.17
2023-01-13T16:23:55.373Z,92.82
2023-01-13T16:24:55.387Z,93.33
2023-01-13T16:25:55.347Z,92.71
2023-01-13T16:26:55.375Z,92.92
2023-01-13T16:27:55.312Z,92.82
2023-01-13T16:28:55.328Z,93.02
2023-01-13T16:29:55.303Z,92.71
2023-01-13T16:30:55.311Z,92.61
2023-01-13T16:31:55.301Z,91.31
2023-01-13T16:32:55.338Z,92.24
2023-01-13T16:33:55.279Z,92.65
2023-01-13T16:34:55.263Z,90.39
2023-01-13T16:36:10.807Z,92.24
2023-01-13T16:36:55.263Z,93.06
2023-01-13T16:37:55.260Z,93.99
2023-01-13T16:38:55.257Z,92.76
2023-01-13T16:39:55.225Z,93.16
2023-01-13T16:40:55.225Z,93.37
2023-01-13T16:41:55.197Z,92.86
2023-01-13T16:42:55.207Z,92.86
2023-01-13T16:43:55.200Z,92.96
2023-01-13T16:44:55.197Z,93.16
2023-01-13T16:45:55.262Z,92.76
2023-01-13T16:46:55.192Z,91.83
2023-01-13T16:47:55.142Z,93.37
2023-01-13T16:48:55.189Z,93.27
2023-01-13T16:49:55.107Z,93.54
2023-01-13T16:50:55.120Z,94.20
2023-01-13T16:51:55.130Z,93.68
2023-01-13T16:52:55.121Z,94.51
2023-01-13T16:53:55.066Z,93.37
2023-01-13T16:54:55.139Z,91.62
2023-01-13T16:55:55.070Z,91.93
2023-01-13T16:56:55.072Z,93.16
2023-01-13T16:57:55.061Z,93.16
2023-01-13T16:58:55.093Z,93.37
2023-01-13T16:59:55.050Z,92.55
2023-01-13T17:00:55.107Z,92.65
2023-01-13T17:01:55.157Z,91.93
2023-01-13T17:02:55.034Z,93.16
2023-01-13T17:03:55.015Z,93.37
2023-01-13T17:04:54.984Z,93.06
2023-01-13T17:05:54.981Z,93.37
2023-01-13T17:06:54.965Z,92.55
2023-01-13T17:07:54.936Z,93.68
2023-01-13T17:08:54.939Z,92.44
2023-01-13T17:09:54.957Z,92.55
2023-01-13T17:10:54.922Z,93.79
2023-01-13T17:11:54.896Z,93.37
2023-01-13T17:12:56.046Z,92.86
2023-01-13T17:13:54.877Z,94.09
2023-01-13T17:14:54.883Z,93.99
2023-01-13T17:15:54.861Z,94.51
2023-01-13T17:16:54.938Z,93.88
2023-01-13T17:17:54.849Z,92.65
2023-01-13T17:18:54.839Z,91.62
2023-01-13T17:19:54.836Z,92.65
2023-01-13T17:20:54.813Z,92.24
2023-01-13T17:21:54.793Z,91.52
2023-01-13T17:22:58.255Z,91.83
2023-01-13T17:23:54.760Z,93.16
2023-01-13T17:24:54.780Z,92.03
2023-01-13T17:25:54.753Z,92.03